createdAt,value
2019-04-03T00:00:16.099Z,95.32
2019-04-03T00:01:16.121Z,95.51
2019-04-03T00:02:16.133Z,95.79
2019-04-03T00:03:16.153Z,95.60
2019-04-03T00:04:16.167Z,95.60
2019-04-03T00:05:16.185Z,95.89
2019-04-03T00:06:16.205Z,95.60
2019-04-03T00:07:16.223Z,95.60
2019-04-03T00:08:16.233Z,95.60
2019-04-03T00:09:16.251Z,95.51
2019-04-03T00:10:16.291Z,95.41
2019-04-03T00:11:16.282Z,95.51
2019-04-03T00:12:16.301Z,95.41
2019-04-03T00:13:16.339Z,95.60
2019-04-03T00:14:16.335Z,95.89
2019-04-03T00:15:16.351Z,95.70
2019-04-03T00:16:16.493Z,95.51
2019-04-03T00:17:16.385Z,95.60
2019-04-03T00:18:16.783Z,95.79
2019-04-03T00:19:17.691Z,95.79
2019-04-03T00:20:18.213Z,95.51
2019-04-03T00:21:17.698Z,95.60
2019-04-03T00:22:16.468Z,95.51
2019-04-03T00:23:16.489Z,95.41
2019-04-03T00:24:16.502Z,95.70
2019-04-03T00:25:16.540Z,95.70
2019-04-03T00:26:16.535Z,95.60
2019-04-03T00:27:16.553Z,95.51
2019-04-03T00:28:16.569Z,95.32
2019-04-03T00:29:16.587Z,95.51
2019-04-03T00:30:16.604Z,95.51
2019-04-03T00:31:16.622Z,95.51
2019-04-03T00:32:16.636Z,95.70
2019-04-03T00:33:16.698Z,95.79
2019-04-03T00:34:16.669Z,95.41
2019-04-03T00:35:16.685Z,96.17
2019-04-03T00:36:16.706Z,96.08
2019-04-03T00:37:16.721Z,95.41
2019-04-03T00:38:16.739Z,95.60
2019-04-03T00:39:16.755Z,95.89
2019-04-03T00:40:16.773Z,95.89
2019-04-03T00:41:16.809Z,95.79
2019-04-03T00:42:16.803Z,95.60
2019-04-03T00:43:16.866Z,95.51
2019-04-03T00:44:16.841Z,95.60
2019-04-03T00:45:16.860Z,95.89
2019-04-03T00:46:16.871Z,95.89
2019-04-03T00:47:16.962Z,95.89
2019-04-03T00:48:16.907Z,96.36
2019-04-03T00:49:16.930Z,96.26
2019-04-03T00:50:16.941Z,96.26
2019-04-03T00:51:16.957Z,96.46
2019-04-03T00:52:16.972Z,96.36
2019-04-03T00:53:16.992Z,96.26
2019-04-03T00:54:17.009Z,95.70
2019-04-03T00:55:17.025Z,95.70
2019-04-03T00:56:17.123Z,95.70
2019-04-03T00:57:17.108Z,96.36
2019-04-03T00:58:17.128Z,96.46
2019-04-03T00:59:17.118Z,96.26
2019-04-03T01:00:17.181Z,96.36
2019-04-03T01:01:17.193Z,96.26
2019-04-03T01:02:17.189Z,96.26
2019-04-03T01:03:17.188Z,96.26
2019-04-03T01:04:17.191Z,96.17
2019-04-03T01:05:17.349Z,96.26
2019-04-03T01:06:17.212Z,96.46
2019-04-03T01:07:17.229Z,96.46
2019-04-03T01:08:17.351Z,96.26
2019-04-03T01:09:17.262Z,96.26
2019-04-03T01:10:17.279Z,96.26
2019-04-03T01:11:17.301Z,96.26
2019-04-03T01:12:17.354Z,96.26
2019-04-03T01:13:17.331Z,96.36
2019-04-03T01:14:17.406Z,96.17
2019-04-03T01:15:17.364Z,96.46
2019-04-03T01:16:17.379Z,96.36
2019-04-03T01:17:17.397Z,96.46
2019-04-03T01:18:17.415Z,96.55
2019-04-03T01:19:17.436Z,96.46
2019-04-03T01:20:17.450Z,96.26
2019-04-03T01:21:17.465Z,96.36
2019-04-03T01:22:17.483Z,96.26
2019-04-03T01:23:17.499Z,96.46
2019-04-03T01:24:17.560Z,96.84
2019-04-03T01:25:17.535Z,96.65
2019-04-03T01:26:17.553Z,97.03
2019-04-03T01:27:17.573Z,96.46
2019-04-03T01:28:17.584Z,96.74
2019-04-03T01:29:17.600Z,96.55
2019-04-03T01:30:17.621Z,96.74
2019-04-03T01:31:17.633Z,96.74
2019-04-03T01:32:17.650Z,97.13
2019-04-03T01:33:17.667Z,97.27
2019-04-03T01:34:18.085Z,97.22
2019-04-03T01:35:17.906Z,97.08
2019-04-03T01:36:18.191Z,96.89
2019-04-03T01:37:19.176Z,97.45
2019-04-03T01:38:19.225Z,97.55
2019-04-03T01:39:19.129Z,96.98
2019-04-03T01:40:20.306Z,97.27
2019-04-03T01:41:20.208Z,97.36
2019-04-03T01:42:17.819Z,97.27
2019-04-03T01:43:17.837Z,97.27
2019-04-03T01:44:17.852Z,97.27
2019-04-03T01:45:17.871Z,97.45
2019-04-03T01:46:17.928Z,97.27
2019-04-03T01:47:17.902Z,97.45
2019-04-03T01:48:17.921Z,97.55
2019-04-03T01:49:17.937Z,97.83
2019-04-03T01:50:17.954Z,97.45
2019-04-03T01:51:17.976Z,97.55
2019-04-03T01:52:18.056Z,97.55
2019-04-03T01:53:18.001Z,97.74
2019-04-03T01:54:18.019Z,97.36
2019-04-03T01:55:18.089Z,97.55
2019-04-03T01:56:18.175Z,97.55
2019-04-03T01:57:18.218Z,97.55
2019-04-03T01:58:18.094Z,97.55
2019-04-03T01:59:18.102Z,97.74
2019-04-03T02:00:18.143Z,97.36
2019-04-03T02:01:18.137Z,97.64
2019-04-03T02:02:18.344Z,97.55
2019-04-03T02:03:18.169Z,97.64
2019-04-03T02:04:18.186Z,97.55
2019-04-03T02:05:18.286Z,97.45
2019-04-03T02:06:18.219Z,97.74
2019-04-03T02:07:18.237Z,97.74
2019-04-03T02:08:18.254Z,97.64
2019-04-03T02:09:18.268Z,97.64
2019-04-03T02:10:18.417Z,97.36
2019-04-03T02:11:18.608Z,97.36
2019-04-03T02:12:19.795Z,97.55
2019-04-03T02:13:18.354Z,97.55
2019-04-03T02:14:21.198Z,97.36
2019-04-03T02:15:20.945Z,97.36
2019-04-03T02:16:18.384Z,97.45
2019-04-03T02:17:18.403Z,97.93
2019-04-03T02:18:18.531Z,98.12
2019-04-03T02:19:18.437Z,98.60
2019-04-03T02:20:18.452Z,97.93
2019-04-03T02:21:18.502Z,98.31
2019-04-03T02:22:18.483Z,98.12
2019-04-03T02:23:18.506Z,98.22
2019-04-03T02:24:18.517Z,98.50
2019-04-03T02:25:18.533Z,98.60
2019-04-03T02:26:18.549Z,98.31
2019-04-03T02:27:18.564Z,98.50
2019-04-03T02:28:18.749Z,98.22
2019-04-03T02:29:18.602Z,98.31
2019-04-03T02:30:18.616Z,98.50
2019-04-03T02:31:19.986Z,98.50
2019-04-03T02:32:18.655Z,98.22
2019-04-03T02:33:18.682Z,98.41
2019-04-03T02:34:18.939Z,97.93
2019-04-03T02:35:18.703Z,98.50
2019-04-03T02:36:18.716Z,98.41
2019-04-03T02:37:18.742Z,98.12
2019-04-03T02:38:21.386Z,98.03
2019-04-03T02:39:18.764Z,97.93
2019-04-03T02:40:18.922Z,98.31
2019-04-03T02:41:18.858Z,98.22
2019-04-03T02:42:18.814Z,98.41
2019-04-03T02:43:18.831Z,98.31
2019-04-03T02:44:19.878Z,98.31
2019-04-03T02:45:22.434Z,98.41
2019-04-03T02:46:18.879Z,98.22
2019-04-03T02:47:18.909Z,98.41
2019-04-03T02:48:18.988Z,98.41
2019-04-03T02:49:18.993Z,98.22
2019-04-03T02:50:18.983Z,98.79
2019-04-03T02:51:19.717Z,98.79
2019-04-03T02:52:19.050Z,98.31
2019-04-03T02:53:19.087Z,98.88
2019-04-03T02:54:19.053Z,98.60
2019-04-03T02:55:19.089Z,98.60
2019-04-03T02:56:19.085Z,98.69
2019-04-03T02:57:19.083Z,98.79
2019-04-03T02:58:21.124Z,98.69
2019-04-03T02:59:19.095Z,98.50
2019-04-03T03:00:19.110Z,98.79
2019-04-03T03:01:19.130Z,99.07
2019-04-03T03:02:19.141Z,99.55
2019-04-03T03:03:19.177Z,99.64
2019-04-03T03:04:21.836Z,99.64
2019-04-03T03:05:19.195Z,99.36
2019-04-03T03:06:19.413Z,99.36
2019-04-03T03:07:19.225Z,99.74
2019-04-03T03:08:22.510Z,99.36
2019-04-03T03:09:19.522Z,99.74
2019-04-03T03:10:20.238Z,99.36
2019-04-03T03:11:23.026Z,99.74
2019-04-03T03:12:19.307Z,99.74
2019-04-03T03:13:19.324Z,99.74
2019-04-03T03:14:19.578Z,99.36
2019-04-03T03:15:19.356Z,99.55
2019-04-03T03:16:19.412Z,99.45
2019-04-03T03:17:22.547Z,99.45
2019-04-03T03:18:19.443Z,99.36
2019-04-03T03:19:19.619Z,99.45
2019-04-03T03:20:19.437Z,99.36
2019-04-03T03:21:19.461Z,99.36
2019-04-03T03:22:19.886Z,99.26
2019-04-03T03:23:22.447Z,99.36
2019-04-03T03:24:19.806Z,99.45
2019-04-03T03:25:19.521Z,99.36
2019-04-03T03:26:19.579Z,99.55
2019-04-03T03:27:19.551Z,99.45
2019-04-03T03:28:19.569Z,99.36
2019-04-03T03:29:24.625Z,99.55
2019-04-03T03:30:37.491Z,99.55
2019-04-03T03:31:22.671Z,99.50
2019-04-03T03:32:25.945Z,99.40
2019-04-03T03:33:29.903Z,99.40
2019-04-03T03:34:43.898Z,99.59
2019-04-03T03:35:28.035Z,99.30
2019-04-03T03:36:23.417Z,99.16
2019-04-03T03:37:19.794Z,99.64
2019-04-03T03:38:19.731Z,99.11
2019-04-03T03:39:19.747Z,99.11
2019-04-03T03:40:19.762Z,99.11
2019-04-03T03:41:23.250Z,99.50
2019-04-03T03:42:19.802Z,99.30
2019-04-03T03:43:19.820Z,99.21
2019-04-03T03:44:19.830Z,99.69
2019-04-03T03:45:20.937Z,99.50
2019-04-03T03:46:19.955Z,99.78
2019-04-03T03:47:19.877Z,99.59
2019-04-03T03:48:19.895Z,99.99
2019-04-03T03:49:19.913Z,99.97
2019-04-03T03:50:22.392Z,99.88
2019-04-03T03:51:19.941Z,99.99
2019-04-03T03:52:19.959Z,99.99
2019-04-03T03:53:20.070Z,99.99
2019-04-03T03:54:19.991Z,99.99
2019-04-03T03:55:23.163Z,99.99
2019-04-03T03:56:20.032Z,99.99
2019-04-03T03:57:20.039Z,99.69
2019-04-03T03:58:20.160Z,99.69
2019-04-03T03:59:20.076Z,99.99
2019-04-03T04:00:22.597Z,99.99
2019-04-03T04:01:20.105Z,99.99
2019-04-03T04:02:20.455Z,99.99
2019-04-03T04:03:20.295Z,99.88
2019-04-03T04:04:20.437Z,99.99
2019-04-03T04:05:22.098Z,99.99
2019-04-03T04:06:20.187Z,99.99
2019-04-03T04:07:20.208Z,99.99
2019-04-03T04:08:20.457Z,99.99
2019-04-03T04:09:20.233Z,99.99
2019-04-03T04:10:24.015Z,99.99
2019-04-03T04:11:20.284Z,99.99
2019-04-03T04:12:20.280Z,99.99
2019-04-03T04:13:20.306Z,99.78
2019-04-03T04:14:22.534Z,99.99
2019-04-03T04:15:20.353Z,99.99
2019-04-03T04:16:20.749Z,99.78
2019-04-03T04:17:20.647Z,99.99
2019-04-03T04:18:22.964Z,99.99
2019-04-03T04:19:20.403Z,99.99
2019-04-03T04:20:20.409Z,99.99
2019-04-03T04:21:20.425Z,99.99
2019-04-03T04:22:20.442Z,99.99
2019-04-03T04:23:23.168Z,99.99
2019-04-03T04:24:20.474Z,99.99
2019-04-03T04:25:20.488Z,99.99
2019-04-03T04:26:20.504Z,99.99
2019-04-03T04:27:20.521Z,99.99
2019-04-03T04:28:20.548Z,99.99
2019-04-03T04:29:20.602Z,99.99
2019-04-03T04:30:20.752Z,99.99
2019-04-03T04:31:20.583Z,99.99
2019-04-03T04:32:20.603Z,99.99
2019-04-03T04:33:20.819Z,99.99
2019-04-03T04:34:20.633Z,99.99
2019-04-03T04:35:21.517Z,99.99
2019-04-03T04:36:23.376Z,99.99
2019-04-03T04:37:20.684Z,99.99
2019-04-03T04:38:20.913Z,99.99
2019-04-03T04:39:20.720Z,99.99
2019-04-03T04:40:20.734Z,99.99
2019-04-03T04:41:20.747Z,99.99
2019-04-03T04:42:20.770Z,99.99
2019-04-03T04:43:20.850Z,99.99
2019-04-03T04:44:20.851Z,99.99
2019-04-03T04:45:20.854Z,99.99
2019-04-03T04:46:20.904Z,99.99
2019-04-03T04:47:20.897Z,99.99
2019-04-03T04:48:21.367Z,99.99
2019-04-03T04:49:22.578Z,99.99
2019-04-03T04:50:20.943Z,99.99
2019-04-03T04:51:20.917Z,99.99
2019-04-03T04:52:21.171Z,99.99
2019-04-03T04:53:20.940Z,99.99
2019-04-03T04:54:20.955Z,99.99
2019-04-03T04:55:20.973Z,99.99
2019-04-03T04:56:20.991Z,99.99
2019-04-03T04:57:21.008Z,99.99
2019-04-03T04:58:21.022Z,99.99
2019-04-03T04:59:21.203Z,99.99
2019-04-03T05:00:21.081Z,99.99
2019-04-03T05:01:21.101Z,99.99
2019-04-03T05:02:21.321Z,99.99
2019-04-03T05:03:21.847Z,99.99
2019-04-03T05:04:21.268Z,99.99
2019-04-03T05:05:21.135Z,99.99
2019-04-03T05:06:21.263Z,99.99
2019-04-03T05:07:21.166Z,99.99
2019-04-03T05:08:21.184Z,99.99
2019-04-03T05:09:21.275Z,99.99
2019-04-03T05:10:21.215Z,99.99
2019-04-03T05:11:21.235Z,99.99
2019-04-03T05:12:21.251Z,99.99
2019-04-03T05:13:21.381Z,99.99
2019-04-03T05:14:21.284Z,99.99
2019-04-03T05:15:23.434Z,99.99
2019-04-03T05:16:21.321Z,99.99
2019-04-03T05:17:21.332Z,99.99
2019-04-03T05:18:21.347Z,99.99
2019-04-03T05:19:21.373Z,99.99
2019-04-03T05:20:21.382Z,99.99
2019-04-03T05:21:22.089Z,99.99
2019-04-03T05:22:21.877Z,99.99
2019-04-03T05:23:21.430Z,99.99
2019-04-03T05:24:21.447Z,99.99
2019-04-03T05:25:21.465Z,99.99
2019-04-03T05:26:21.885Z,99.99
2019-04-03T05:27:21.499Z,99.99
2019-04-03T05:28:21.512Z,99.99
2019-04-03T05:29:21.531Z,99.93
2019-04-03T05:30:21.545Z,99.99
2019-04-03T05:31:21.562Z,99.99
2019-04-03T05:32:21.578Z,99.99
2019-04-03T05:33:21.595Z,99.99
2019-04-03T05:34:21.610Z,99.99
2019-04-03T05:35:21.627Z,99.99
2019-04-03T05:36:21.643Z,99.99
2019-04-03T05:37:21.663Z,99.99
2019-04-03T05:38:22.477Z,99.99
2019-04-03T05:39:22.081Z,99.99
2019-04-03T05:40:21.710Z,99.93
2019-04-03T05:41:21.825Z,99.99
2019-04-03T05:42:21.743Z,99.99
2019-04-03T05:43:21.761Z,99.99
2019-04-03T05:44:23.268Z,99.99
2019-04-03T05:45:21.792Z,99.99
2019-04-03T05:46:21.812Z,99.99
2019-04-03T05:47:21.829Z,99.93
2019-04-03T05:48:21.845Z,99.93
2019-04-03T05:49:21.861Z,99.99
2019-04-03T05:50:21.878Z,99.99
2019-04-03T05:51:21.893Z,99.99
2019-04-03T05:52:21.911Z,99.93
2019-04-03T05:53:21.929Z,99.99
2019-04-03T05:54:22.267Z,99.64
2019-04-03T05:55:21.967Z,99.69
2019-04-03T05:56:21.978Z,99.36
2019-04-03T05:57:21.998Z,99.41
2019-04-03T05:58:22.013Z,99.60
2019-04-03T05:59:22.028Z,99.22
2019-04-03T06:00:22.048Z,99.41
2019-04-03T06:01:22.255Z,99.31
2019-04-03T06:02:22.464Z,99.60
2019-04-03T06:03:36.758Z,99.22
2019-04-03T06:04:22.120Z,99.22
2019-04-03T06:05:22.223Z,98.83
2019-04-03T06:06:22.148Z,98.93
2019-04-03T06:07:22.182Z,99.02
2019-04-03T06:08:22.614Z,98.93
2019-04-03T06:09:23.138Z,99.22
2019-04-03T06:10:22.221Z,98.36
2019-04-03T06:11:22.237Z,98.55
2019-04-03T06:12:22.254Z,99.27
2019-04-03T06:13:22.272Z,98.60
2019-04-03T06:14:23.506Z,98.41
2019-04-03T06:15:22.816Z,98.32
2019-04-03T06:16:24.550Z,98.41
2019-04-03T06:17:22.342Z,98.69
2019-04-03T06:18:22.540Z,98.60
2019-04-03T06:19:22.518Z,98.03
2019-04-03T06:20:22.398Z,98.13
2019-04-03T06:21:22.414Z,98.22
2019-04-03T06:22:22.631Z,96.98
2019-04-03T06:23:22.448Z,97.17
2019-04-03T06:24:24.239Z,96.98
2019-04-03T06:25:22.491Z,97.08
2019-04-03T06:26:22.501Z,97.13
2019-04-03T06:27:22.520Z,97.03
2019-04-03T06:28:22.540Z,96.46
2019-04-03T06:29:22.561Z,96.75
2019-04-03T06:30:22.948Z,95.98
2019-04-03T06:31:22.590Z,95.98
2019-04-03T06:32:24.338Z,95.89
2019-04-03T06:33:22.796Z,95.98
2019-04-03T06:34:22.718Z,95.89
2019-04-03T06:35:22.756Z,95.03
2019-04-03T06:36:22.764Z,94.74
2019-04-03T06:37:22.788Z,95.22
2019-04-03T06:38:24.597Z,95.17
2019-04-03T06:39:24.010Z,95.08
2019-04-03T06:40:22.808Z,95.27
2019-04-03T06:41:22.779Z,95.27
2019-04-03T06:42:22.800Z,95.17
2019-04-03T06:43:22.811Z,95.17
2019-04-03T06:44:23.093Z,95.08
2019-04-03T06:45:24.056Z,94.41
2019-04-03T06:46:22.874Z,94.13
2019-04-03T06:47:22.900Z,93.93
2019-04-03T06:48:22.924Z,93.65
2019-04-03T06:49:22.924Z,93.74
2019-04-03T06:50:22.942Z,93.74
2019-04-03T06:51:22.960Z,93.27
2019-04-03T06:52:23.014Z,92.98
2019-04-03T06:53:25.780Z,93.55
2019-04-03T06:54:23.152Z,93.51
2019-04-03T06:55:24.809Z,93.60
2019-04-03T06:56:23.053Z,93.32
2019-04-03T06:57:23.071Z,93.03
2019-04-03T06:58:23.092Z,93.03
2019-04-03T06:59:23.110Z,92.65
2019-04-03T07:00:23.129Z,92.17
2019-04-03T07:01:23.145Z,93.12
2019-04-03T07:02:23.166Z,92.84
2019-04-03T07:03:23.223Z,93.03
2019-04-03T07:04:23.209Z,93.22
2019-04-03T07:05:23.225Z,93.22
2019-04-03T07:06:23.243Z,92.98
2019-04-03T07:07:32.961Z,92.60
2019-04-03T07:08:30.921Z,91.64
2019-04-03T07:09:33.794Z,91.36
2019-04-03T07:10:25.519Z,90.98
2019-04-03T07:11:24.122Z,89.74
2019-04-03T07:12:23.370Z,90.50
2019-04-03T07:13:23.611Z,90.69
2019-04-03T07:14:25.799Z,91.17
2019-04-03T07:15:24.594Z,90.50
2019-04-03T07:16:23.434Z,90.03
2019-04-03T07:17:23.455Z,89.78
2019-04-03T07:18:23.710Z,89.78
2019-04-03T07:19:23.490Z,89.50
2019-04-03T07:20:23.517Z,89.88
2019-04-03T07:21:24.588Z,89.12
2019-04-03T07:22:23.548Z,89.40
2019-04-03T07:23:23.761Z,89.31
2019-04-03T07:24:23.591Z,89.40
2019-04-03T07:25:23.620Z,89.40
2019-04-03T07:26:23.883Z,89.59
2019-04-03T07:27:23.650Z,89.21
2019-04-03T07:28:23.668Z,89.16
2019-04-03T07:29:25.654Z,89.06
2019-04-03T07:30:23.708Z,88.97
2019-04-03T07:31:24.463Z,88.97
2019-04-03T07:32:25.416Z,88.49
2019-04-03T07:33:24.063Z,88.40
2019-04-03T07:34:23.790Z,88.40
2019-04-03T07:35:23.955Z,87.73
2019-04-03T07:36:23.829Z,86.96
2019-04-03T07:37:23.849Z,86.96
2019-04-03T07:38:23.868Z,86.82
2019-04-03T07:39:23.892Z,86.91
2019-04-03T07:40:23.918Z,86.72
2019-04-03T07:41:23.931Z,86.43
2019-04-03T07:42:24.570Z,86.63
2019-04-03T07:43:26.344Z,86.34
2019-04-03T07:44:23.992Z,85.67
2019-04-03T07:45:24.013Z,85.86
2019-04-03T07:46:24.032Z,85.90
2019-04-03T07:47:24.051Z,85.71
2019-04-03T07:48:24.074Z,85.14
2019-04-03T07:49:24.094Z,84.38
2019-04-03T07:50:24.119Z,84.56
2019-04-03T07:51:24.140Z,83.75
2019-04-03T07:52:24.158Z,83.37
2019-04-03T07:53:24.188Z,83.84
2019-04-03T07:54:26.595Z,84.13
2019-04-03T07:55:25.635Z,83.80
2019-04-03T07:56:25.894Z,83.37
2019-04-03T07:57:24.261Z,83.75
2019-04-03T07:58:25.385Z,83.56
2019-04-03T07:59:24.308Z,83.84
2019-04-03T08:00:24.326Z,84.42
2019-04-03T08:01:24.347Z,84.70
2019-04-03T08:02:24.606Z,84.52
2019-04-03T08:03:24.428Z,84.42
2019-04-03T08:04:25.321Z,83.65
2019-04-03T08:05:24.483Z,82.60
2019-04-03T08:06:24.454Z,82.60
2019-04-03T08:07:24.720Z,82.70
2019-04-03T08:08:24.500Z,82.98
2019-04-03T08:09:24.610Z,83.17
2019-04-03T08:10:24.597Z,82.60
2019-04-03T08:11:24.625Z,82.12
2019-04-03T08:12:24.651Z,81.65
2019-04-03T08:13:24.660Z,82.41
2019-04-03T08:14:24.680Z,82.70
2019-04-03T08:15:24.873Z,82.98
2019-04-03T08:16:24.661Z,83.17
2019-04-03T08:17:24.684Z,82.98
2019-04-03T08:18:24.705Z,83.50
2019-04-03T08:19:24.728Z,83.56
2019-04-03T08:20:26.025Z,83.22
2019-04-03T08:21:24.769Z,82.89
2019-04-03T08:22:24.788Z,82.83
2019-04-03T08:23:24.810Z,82.83
2019-04-03T08:24:24.833Z,83.40
2019-04-03T08:25:24.852Z,82.83
2019-04-03T08:26:26.646Z,81.59
2019-04-03T08:27:24.895Z,82.07
2019-04-03T08:28:28.022Z,82.17
2019-04-03T08:29:24.937Z,82.45
2019-04-03T08:30:24.960Z,81.78
2019-04-03T08:31:24.984Z,82.07
2019-04-03T08:32:25.001Z,81.59
2019-04-03T08:33:27.364Z,81.97
2019-04-03T08:34:25.101Z,81.78
2019-04-03T08:35:25.184Z,81.78
2019-04-03T08:36:26.469Z,81.78
2019-04-03T08:37:30.617Z,82.35
2019-04-03T08:38:25.151Z,82.45
2019-04-03T08:39:25.148Z,81.30
2019-04-03T08:40:25.173Z,81.30
2019-04-03T08:41:25.440Z,81.97
2019-04-03T08:42:27.495Z,82.26
2019-04-03T08:43:25.465Z,81.97
2019-04-03T08:44:25.252Z,81.88
2019-04-03T08:45:25.275Z,81.11
2019-04-03T08:46:25.295Z,81.21
2019-04-03T08:47:25.341Z,81.54
2019-04-03T08:48:25.338Z,80.54
2019-04-03T08:49:26.303Z,80.54
2019-04-03T08:50:26.782Z,80.54
2019-04-03T08:51:25.404Z,80.44
2019-04-03T08:52:25.421Z,80.54
2019-04-03T08:53:25.443Z,80.58
2019-04-03T08:54:25.462Z,79.62
2019-04-03T08:55:25.484Z,79.00
2019-04-03T08:56:25.510Z,78.91
2019-04-03T08:57:25.525Z,79.68
2019-04-03T08:58:26.591Z,80.19
2019-04-03T08:59:27.974Z,80.67
2019-04-03T09:00:25.588Z,80.77
2019-04-03T09:01:25.606Z,80.96
2019-04-03T09:02:25.630Z,80.87
2019-04-03T09:03:25.654Z,80.00
2019-04-03T09:04:25.752Z,79.52
2019-04-03T09:05:25.694Z,79.52
2019-04-03T09:06:25.945Z,78.86
2019-04-03T09:07:25.936Z,79.33
2019-04-03T09:08:26.742Z,79.33
2019-04-03T09:09:27.012Z,79.52
2019-04-03T09:10:25.796Z,79.14
2019-04-03T09:11:25.819Z,79.05
2019-04-03T09:12:25.841Z,78.95
2019-04-03T09:13:25.871Z,78.86
2019-04-03T09:14:26.184Z,78.22
2019-04-03T09:15:27.685Z,77.75
2019-04-03T09:16:25.921Z,77.17
2019-04-03T09:17:25.944Z,78.42
2019-04-03T09:18:25.967Z,78.32
2019-04-03T09:19:25.984Z,78.42
2019-04-03T09:20:26.008Z,78.32
2019-04-03T09:21:26.136Z,78.03
2019-04-03T09:22:26.144Z,77.55
2019-04-03T09:23:26.071Z,77.08
2019-04-03T09:24:28.617Z,77.36
2019-04-03T09:25:26.119Z,77.94
2019-04-03T09:26:26.154Z,77.36
2019-04-03T09:27:26.187Z,77.46
2019-04-03T09:28:26.176Z,77.26
2019-04-03T09:29:26.328Z,77.26
2019-04-03T09:30:26.216Z,78.13
2019-04-03T09:31:26.248Z,77.97
2019-04-03T09:32:26.262Z,76.50
2019-04-03T09:33:29.013Z,76.31
2019-04-03T09:34:28.749Z,77.17
2019-04-03T09:35:26.622Z,76.73
2019-04-03T09:36:26.346Z,76.54
2019-04-03T09:37:26.584Z,76.06
2019-04-03T09:38:26.410Z,75.39
2019-04-03T09:39:26.441Z,76.25
2019-04-03T09:40:26.502Z,76.92
2019-04-03T09:41:26.527Z,76.82
2019-04-03T09:42:26.509Z,76.73
2019-04-03T09:43:26.822Z,76.64
2019-04-03T09:44:26.543Z,76.06
2019-04-03T09:45:28.306Z,74.91
2019-04-03T09:46:26.752Z,74.24
2019-04-03T09:47:26.580Z,74.24
2019-04-03T09:48:26.684Z,73.95
2019-04-03T09:49:26.685Z,74.66
2019-04-03T09:50:26.897Z,74.57
2019-04-03T09:51:26.915Z,74.76
2019-04-03T09:52:37.998Z,74.47
2019-04-03T09:53:26.769Z,74.27
2019-04-03T09:54:28.332Z,74.57
2019-04-03T09:55:26.972Z,74.76
2019-04-03T09:56:26.781Z,73.70
2019-04-03T09:57:26.823Z,73.61
2019-04-03T09:58:26.817Z,74.08
2019-04-03T09:59:26.847Z,74.76
2019-04-03T10:00:27.155Z,74.27
2019-04-03T10:01:26.884Z,74.12
2019-04-03T10:02:26.906Z,73.26
2019-04-03T10:03:27.040Z,72.39
2019-04-03T10:04:26.948Z,72.39
2019-04-03T10:05:28.998Z,72.11
2019-04-03T10:06:26.992Z,71.72
2019-04-03T10:07:27.023Z,71.15
2019-04-03T10:08:27.078Z,72.20
2019-04-03T10:09:27.642Z,72.78
2019-04-03T10:10:27.079Z,72.68
2019-04-03T10:11:27.103Z,72.88
2019-04-03T10:12:27.126Z,72.59
2019-04-03T10:13:27.148Z,72.78
2019-04-03T10:14:28.134Z,72.68
2019-04-03T10:15:27.264Z,72.01
2019-04-03T10:16:27.400Z,71.15
2019-04-03T10:17:27.234Z,70.57
2019-04-03T10:18:27.277Z,70.09
2019-04-03T10:19:27.278Z,70.48
2019-04-03T10:20:27.509Z,70.67
2019-04-03T10:21:27.322Z,71.25
2019-04-03T10:22:27.346Z,71.86
2019-04-03T10:23:29.041Z,71.66
2019-04-03T10:24:28.915Z,71.76
2019-04-03T10:25:27.410Z,70.90
2019-04-03T10:26:27.908Z,69.65
2019-04-03T10:27:27.458Z,70.13
2019-04-03T10:28:27.576Z,70.42
2019-04-03T10:29:27.502Z,70.42
2019-04-03T10:30:27.526Z,70.32
2019-04-03T10:31:27.545Z,70.32
2019-04-03T10:32:28.212Z,70.51
2019-04-03T10:33:29.060Z,69.84
2019-04-03T10:34:27.623Z,70.55
2019-04-03T10:35:27.639Z,70.36
2019-04-03T10:36:27.666Z,70.45
2019-04-03T10:37:27.753Z,68.91
2019-04-03T10:38:27.704Z,68.73
2019-04-03T10:39:27.728Z,68.91
2019-04-03T10:40:27.750Z,68.05
2019-04-03T10:41:28.708Z,68.15
2019-04-03T10:42:30.596Z,67.96
2019-04-03T10:43:27.823Z,67.76
2019-04-03T10:44:27.841Z,68.08
2019-04-03T10:45:27.883Z,68.28
2019-04-03T10:46:27.893Z,68.28
2019-04-03T10:47:40.026Z,68.08
2019-04-03T10:48:28.635Z,67.99
2019-04-03T10:49:27.962Z,67.90
2019-04-03T10:50:27.990Z,67.80
2019-04-03T10:51:30.687Z,67.32
2019-04-03T10:52:28.031Z,67.64
2019-04-03T10:53:28.053Z,66.58
2019-04-03T10:54:28.252Z,66.97
2019-04-03T10:55:29.399Z,67.93
2019-04-03T10:56:29.326Z,67.64
2019-04-03T10:57:28.153Z,66.58
2019-04-03T10:58:28.176Z,64.89
2019-04-03T10:59:28.200Z,64.98
2019-04-03T11:00:29.321Z,64.89
2019-04-03T11:01:28.253Z,65.17
2019-04-03T11:02:28.626Z,65.17
2019-04-03T11:03:28.414Z,65.17
2019-04-03T11:04:28.538Z,64.89
2019-04-03T11:05:28.381Z,65.11
2019-04-03T11:06:28.446Z,65.20
2019-04-03T11:07:28.452Z,63.76
2019-04-03T11:08:28.436Z,63.38
2019-04-03T11:09:28.451Z,63.18
2019-04-03T11:10:28.478Z,63.28
2019-04-03T11:11:29.704Z,63.57
2019-04-03T11:12:29.977Z,62.83
2019-04-03T11:13:28.557Z,62.13
2019-04-03T11:14:28.581Z,63.22
2019-04-03T11:15:28.609Z,63.60
2019-04-03T11:16:28.631Z,63.51
2019-04-03T11:17:28.659Z,62.74
2019-04-03T11:18:28.685Z,62.26
2019-04-03T11:19:28.920Z,62.35
2019-04-03T11:20:28.735Z,61.19
2019-04-03T11:21:28.762Z,60.72
2019-04-03T11:22:39.667Z,60.91
2019-04-03T11:23:38.387Z,61.29
2019-04-03T11:24:29.262Z,61.10
2019-04-03T11:25:28.864Z,60.81
2019-04-03T11:26:28.921Z,61.29
2019-04-03T11:28:28.939Z,62.19
2019-04-03T11:29:29.364Z,62.09
2019-04-03T11:30:28.991Z,62.38
2019-04-03T11:30:54.598Z,62.83
2019-04-03T11:31:29.721Z,61.90
2019-04-03T11:32:29.360Z,61.90
2019-04-03T11:33:29.068Z,61.04
2019-04-03T11:34:29.092Z,60.75
2019-04-03T11:35:29.157Z,61.13
2019-04-03T11:36:30.584Z,60.94
2019-04-03T11:37:31.893Z,61.42
2019-04-03T11:38:29.845Z,61.22
2019-04-03T11:39:29.223Z,60.27
2019-04-03T11:40:29.246Z,60.46
2019-04-03T11:41:29.271Z,60.46
2019-04-03T11:42:30.031Z,60.84
2019-04-03T11:43:31.019Z,61.13
2019-04-03T11:44:29.347Z,61.35
2019-04-03T11:45:29.399Z,61.13
2019-04-03T11:46:29.396Z,62.22
2019-04-03T11:47:29.421Z,61.93
2019-04-03T11:48:29.448Z,62.32
2019-04-03T11:49:29.474Z,62.12
2019-04-03T11:50:29.951Z,60.87
2019-04-03T11:51:30.221Z,60.87
2019-04-03T11:52:29.803Z,61.35
2019-04-03T11:53:29.574Z,60.61
2019-04-03T11:54:29.730Z,60.71
2019-04-03T11:55:29.938Z,61.00
2019-04-03T11:56:29.653Z,60.61
2019-04-03T11:57:29.763Z,60.42
2019-04-03T11:58:29.920Z,59.55
2019-04-03T11:59:29.730Z,59.84
2019-04-03T12:00:29.807Z,60.52
2019-04-03T12:01:29.802Z,60.35
2019-04-03T12:02:29.809Z,60.74
2019-04-03T12:03:29.902Z,60.26
2019-04-03T12:04:30.183Z,59.78
2019-04-03T12:05:29.888Z,59.68
2019-04-03T12:06:29.914Z,59.39
2019-04-03T12:07:29.940Z,59.78
2019-04-03T12:08:30.292Z,59.45
2019-04-03T12:09:31.652Z,58.69
2019-04-03T12:10:30.020Z,57.82
2019-04-03T12:11:30.044Z,57.92
2019-04-03T12:12:30.071Z,58.49
2019-04-03T12:13:30.096Z,59.17
2019-04-03T12:14:30.122Z,59.65
2019-04-03T12:15:30.187Z,59.30
2019-04-03T12:16:30.496Z,59.45
2019-04-03T12:17:30.621Z,58.40
2019-04-03T12:18:33.046Z,57.85
2019-04-03T12:19:30.440Z,57.82
2019-04-03T12:20:30.506Z,57.24
2019-04-03T12:21:30.385Z,58.01
2019-04-03T12:22:30.572Z,58.69
2019-04-03T12:23:30.354Z,58.72
2019-04-03T12:24:30.469Z,58.72
2019-04-03T12:25:30.883Z,58.49
2019-04-03T12:26:30.884Z,58.49
2019-04-03T12:27:30.454Z,59.17
2019-04-03T12:28:30.607Z,59.27
2019-04-03T12:29:30.506Z,59.75
2019-04-03T12:30:30.541Z,59.75
2019-04-03T12:31:30.556Z,59.45
2019-04-03T12:32:37.406Z,59.45
2019-04-03T12:33:30.607Z,58.97
2019-04-03T12:34:30.631Z,59.55
2019-04-03T12:35:30.856Z,59.17
2019-04-03T12:36:30.684Z,59.36
2019-04-03T12:37:30.710Z,60.03
2019-04-03T12:38:30.733Z,59.55
2019-04-03T12:39:30.820Z,59.55
2019-04-03T12:40:32.722Z,58.30
2019-04-03T12:41:30.898Z,57.82
2019-04-03T12:42:31.092Z,57.62
2019-04-03T12:43:30.859Z,58.30
2019-04-03T12:44:30.908Z,59.07
2019-04-03T12:45:30.911Z,58.88
2019-04-03T12:46:32.831Z,58.33
2019-04-03T12:47:30.962Z,58.81
2019-04-03T12:48:31.099Z,57.94
2019-04-03T12:49:31.215Z,57.75
2019-04-03T12:50:31.036Z,57.94
2019-04-03T12:51:31.575Z,58.33
2019-04-03T12:52:31.144Z,58.72